Time;durP1;ratioP1;P1;durP2;ratioP2;P2;SDS_P1;SDS_P2;PMS_P1;PMS_P2;Temp;Humidity;BMP_temperature;BMP_pressure;BME280_temperature;BME280_humidity;BME280_pressure;Samples;Min_cycle;Max_cycle;Signal;HPM_P1;HPM_P2
2022/10/16 00:00:42;;;;;;;14.20;3.03;;;12.70;99.90;;;;;;5056944;28;20051;-64
2022/10/16 00:03:09;;;;;;;9.85;2.88;;;12.80;99.90;;;;;;5057043;28;20033;-64
2022/10/16 00:05:41;;;;;;;8.20;3.17;;;13.10;99.90;;;;;;5056698;28;20044;-64
2022/10/16 00:08:10;;;;;;;9.02;3.17;;;13.00;99.90;;;;;;5055918;28;20033;-64
2022/10/16 00:10:36;;;;;;;10.05;3.17;;;12.70;99.90;;;;;;5055545;28;20049;-64
2022/10/16 00:13:03;;;;;;;11.60;3.38;;;12.90;99.90;;;;;;5055705;28;20048;-64
2022/10/16 00:15:29;;;;;;;9.73;3.60;;;12.80;99.90;;;;;;5056844;28;20041;-64
2022/10/16 00:17:55;;;;;;;11.25;3.17;;;;;;;;;;5056523;28;20051;-64
2022/10/16 00:20:22;;;;;;;7.90;3.20;;;13.10;99.90;;;;;;5056741;28;20179;-64
2022/10/16 00:22:50;;;;;;;7.55;3.13;;;12.80;99.90;;;;;;5056851;28;20049;-64
2022/10/16 00:25:15;;;;;;;6.93;3.05;;;12.70;99.90;;;;;;5056332;28;20044;-64
2022/10/16 00:27:41;;;;;;;10.50;3.40;;;13.10;99.90;;;;;;5056493;28;20041;-64
2022/10/16 00:30:09;;;;;;;8.68;3.25;;;12.80;99.90;;;;;;5056333;28;20107;-64
2022/10/16 00:32:35;;;;;;;12.98;3.60;;;12.40;99.90;;;;;;5056303;28;20043;-64
2022/10/16 00:35:01;;;;;;;11.43;3.67;;;12.60;99.90;;;;;;5056204;28;20040;-64
2022/10/16 00:37:27;;;;;;;11.55;3.70;;;;;;;;;;5056427;28;20067;-64
2022/10/16 00:39:52;;;;;;;8.52;3.40;;;12.90;99.90;;;;;;5056170;28;20041;-64
2022/10/16 00:42:20;;;;;;;9.63;3.30;;;12.90;99.90;;;;;;5056267;28;20037;-60
2022/10/16 00:44:57;;;;;;;8.73;3.40;;;12.80;99.90;;;;;;5056288;28;20044;-64
2022/10/16 00:47:28;;;;;;;10.82;3.10;;;12.90;99.90;;;;;;5056139;28;20473;-64
2022/10/16 00:50:07;;;;;;;8.25;3.00;;;13.00;99.90;;;;;;5056244;28;20128;-64
2022/10/16 00:52:35;;;;;;;7.60;3.30;;;12.20;99.90;;;;;;5056017;28;20401;-64
2022/10/16 00:55:03;;;;;;;16.58;3.65;;;12.60;99.90;;;;;;5055917;28;20037;-64
2022/10/16 00:57:31;;;;;;;12.68;3.30;;;12.60;99.90;;;;;;5055816;28;20083;-64
2022/10/16 01:00:01;;;;;;;9.88;3.20;;;12.60;99.90;;;;;;5055825;28;20048;-64
2022/10/16 01:02:26;;;;;;;10.68;3.20;;;12.50;99.90;;;;;;5054820;28;20037;-64
2022/10/16 01:04:54;;;;;;;9.02;3.67;;;12.90;99.90;;;;;;5055887;28;20039;-64
2022/10/16 01:07:55;;;;;;;8.82;3.08;;;12.70;99.90;;;;;;5055829;28;20041;-60
2022/10/16 01:10:33;;;;;;;11.88;3.42;;;13.00;99.90;;;;;;5055812;28;20121;-60
2022/10/16 01:13:10;;;;;;;12.15;3.67;;;12.70;99.90;;;;;;5055930;28;20056;-60
2022/10/16 01:15:42;;;;;;;10.00;3.45;;;12.80;99.90;;;;;;5055559;28;20493;-60
2022/10/16 01:18:18;;;;;;;9.00;3.38;;;13.00;99.90;;;;;;5055509;28;20040;-60
2022/10/16 01:20:52;;;;;;;;;;;12.80;99.90;;;;;;5055854;28;20485;-60
2022/10/16 01:23:24;;;;;;;12.88;3.70;;;12.60;99.90;;;;;;5055774;28;19916;-60
2022/10/16 01:26:08;;;;;;;10.88;3.50;;;12.70;99.90;;;;;;5055036;28;20049;-60
2022/10/16 01:28:57;;;;;;;9.43;3.50;;;12.90;99.90;;;;;;5055638;28;20044;-60
2022/10/16 01:31:26;;;;;;;10.02;3.30;;;12.70;99.90;;;;;;5055320;28;20045;-60
2022/10/16 01:34:00;;;;;;;7.32;3.20;;;12.70;99.90;;;;;;5055355;28;20033;-60
2022/10/16 01:36:32;;;;;;;8.65;3.42;;;12.30;99.90;;;;;;5055283;28;20033;-60
2022/10/16 01:39:01;;;;;;;8.35;3.38;;;12.60;99.90;;;;;;5055175;28;20124;-60
2022/10/16 01:41:39;;;;;;;11.68;3.20;;;12.60;99.90;;;;;;5053762;28;20492;-60
2022/10/16 01:44:11;;;;;;;13.10;3.38;;;12.60;99.90;;;;;;5055056;28;20516;-60
2022/10/16 01:46:42;;;;;;;8.25;3.30;;;12.70;99.90;;;;;;5055224;28;20068;-60
2022/10/16 01:49:10;;;;;;;10.07;3.30;;;12.70;99.90;;;;;;5054976;28;20055;-60
2022/10/16 01:51:37;;;;;;;11.70;3.33;;;12.40;99.90;;;;;;5054956;28;20044;-60
2022/10/16 01:54:07;;;;;;;9.40;3.30;;;12.60;99.90;;;;;;5054890;28;20041;-60
2022/10/16 01:56:35;;;;;;;8.20;3.30;;;12.20;99.90;;;;;;5055151;28;20044;-60
2022/10/16 01:59:14;;;;;;;7.97;3.33;;;13.00;99.90;;;;;;5054892;28;20059;-60
2022/10/16 02:01:44;;;;;;;9.73;3.33;;;12.70;99.90;;;;;;5054837;28;20185;-60
2022/10/16 02:04:18;;;;;;;7.97;3.50;;;12.70;99.90;;;;;;5054407;28;20468;-60
2022/10/16 02:06:44;;;;;;;8.23;3.17;;;12.90;99.90;;;;;;5054690;28;20033;-60
2022/10/16 02:09:10;;;;;;;10.52;3.33;;;12.40;99.90;;;;;;5054595;28;20052;-60
2022/10/16 02:11:36;;;;;;;8.38;3.20;;;12.80;99.90;;;;;;5054467;28;20556;-60
2022/10/16 02:14:05;;;;;;;13.52;3.28;;;12.70;99.90;;;;;;5054648;28;20115;-60
2022/10/16 02:16:37;;;;;;;8.38;3.22;;;12.30;99.90;;;;;;5054474;28;20044;-60
2022/10/16 02:19:06;;;;;;;9.73;3.00;;;12.40;99.90;;;;;;5054581;28;20045;-60
2022/10/16 02:21:47;;;;;;;8.82;3.20;;;12.70;99.90;;;;;;5053983;28;20477;-60
2022/10/16 02:24:24;;;;;;;8.45;3.03;;;12.70;99.90;;;;;;5054223;28;20085;-60
2022/10/16 02:27:01;;;;;;;8.82;3.05;;;13.10;99.90;;;;;;5054171;28;20072;-60
2022/10/16 02:29:27;;;;;;;10.40;3.08;;;12.50;99.90;;;;;;5054315;28;20049;-60
2022/10/16 02:32:02;;;;;;;6.72;2.85;;;12.30;99.90;;;;;;5054014;28;20166;-60
2022/10/16 02:34:31;;;;;;;8.98;2.90;;;12.60;99.90;;;;;;5054362;28;20442;-60
2022/10/16 02:37:00;;;;;;;6.43;3.15;;;12.70;99.90;;;;;;5053920;28;20037;-60
2022/10/16 02:39:29;;;;;;;8.20;3.15;;;13.00;99.90;;;;;;5053738;28;20049;-60
2022/10/16 02:41:55;;;;;;;6.38;2.70;;;;;;;;;;5052611;28;20041;-60
2022/10/16 02:44:21;;;;;;;7.10;2.95;;;12.60;99.90;;;;;;5054028;28;20436;-60
2022/10/16 02:46:47;;;;;;;6.97;2.90;;;12.50;99.90;;;;;;5053959;28;20068;-60
2022/10/16 02:49:15;;;;;;;6.25;2.90;;;;;;;;;;5053912;28;20041;-60
2022/10/16 02:51:41;;;;;;;9.80;3.00;;;12.70;99.90;;;;;;5053893;28;20120;-61
2022/10/16 02:54:06;;;;;;;6.15;2.97;;;13.10;99.90;;;;;;5053622;28;20175;-60
2022/10/16 02:56:33;;;;;;;5.32;2.80;;;12.80;99.90;;;;;;5053589;28;20496;-58
2022/10/16 02:58:58;;;;;;;7.47;2.90;;;13.00;99.90;;;;;;5053695;28;20045;-57
2022/10/16 03:01:26;;;;;;;7.85;3.00;;;;;;;;;;5053514;28;20051;-57
2022/10/16 03:03:52;;;;;;;10.23;2.80;;;12.90;99.90;;;;;;5052109;28;20451;-57
2022/10/16 03:06:17;;;;;;;6.97;3.17;;;12.90;99.90;;;;;;5053406;28;20187;-58
2022/10/16 03:08:43;;;;;;;7.03;3.10;;;;;;;;;;5053372;28;20033;-58
2022/10/16 03:11:09;;;;;;;9.48;3.38;;;;;;;;;;5053657;28;20045;-61
2022/10/16 03:13:35;;;;;;;10.15;3.05;;;12.90;99.90;;;;;;5053568;28;20048;-62
2022/10/16 03:16:01;;;;;;;5.53;3.08;;;12.60;99.90;;;;;;5053814;28;20045;-62
2022/10/16 03:18:28;;;;;;;6.68;3.10;;;13.20;99.90;;;;;;5053378;28;20033;-61
2022/10/16 03:20:54;;;;;;;7.50;2.70;;;12.70;99.90;;;;;;5053327;28;20041;-62
2022/10/16 03:23:21;;;;;;;9.05;3.30;;;13.60;99.90;;;;;;5051898;28;20508;-62
2022/10/16 03:25:49;;;;;;;9.90;3.47;;;12.90;99.90;;;;;;5053033;28;20047;-61
2022/10/16 03:28:15;;;;;;;5.40;2.95;;;13.40;99.90;;;;;;5053369;28;20069;-61
2022/10/16 03:30:41;;;;;;;5.90;3.08;;;;;;;;;;5053174;28;20084;-62
2022/10/16 03:33:09;;;;;;;7.25;3.33;;;13.30;99.90;;;;;;5052318;28;20052;-62
2022/10/16 03:35:37;;;;;;;9.60;3.20;;;13.30;99.90;;;;;;5053128;28;20037;-62
2022/10/16 03:38:02;;;;;;;9.68;3.30;;;13.50;99.90;;;;;;5052916;28;20033;-62
2022/10/16 03:40:32;;;;;;;10.32;3.50;;;13.20;99.90;;;;;;5051677;28;20044;-58
2022/10/16 03:42:58;;;;;;;8.65;3.70;;;13.70;99.90;;;;;;5053175;28;20069;-58
2022/10/16 03:45:24;;;;;;;8.48;3.72;;;13.00;99.90;;;;;;5053126;28;20037;-57
2022/10/16 03:47:51;;;;;;;11.18;3.95;;;13.30;99.90;;;;;;5053063;28;20045;-58
2022/10/16 03:50:16;;;;;;;10.55;3.60;;;13.10;99.90;;;;;;5052887;28;20078;-62
2022/10/16 03:52:44;;;;;;;5.93;3.30;;;13.60;99.90;;;;;;5053106;28;20163;-63
2022/10/16 03:55:11;;;;;;;6.20;3.97;;;13.00;99.90;;;;;;5035013;28;20049;-62
2022/10/16 03:57:38;;;;;;;9.60;4.20;;;12.90;99.90;;;;;;5053010;28;20045;-61
2022/10/16 04:00:04;;;;;;;6.63;3.70;;;13.30;99.90;;;;;;5051656;28;20052;-61
2022/10/16 04:02:29;;;;;;;8.73;3.80;;;13.00;99.90;;;;;;5052805;28;20072;-61
2022/10/16 04:04:58;;;;;;;6.93;4.00;;;12.90;99.90;;;;;;5051585;28;20037;-61
2022/10/16 04:07:26;;;;;;;10.25;4.00;;;13.00;99.90;;;;;;5053080;28;20029;-61
2022/10/16 04:09:53;;;;;;;6.50;3.88;;;13.10;99.90;;;;;;5053013;28;20382;-61
2022/10/16 04:12:22;;;;;;;11.00;4.00;;;;;;;;;;5052893;28;20120;-61
2022/10/16 04:14:47;;;;;;;6.43;3.92;;;13.50;99.90;;;;;;5052916;28;20045;-61
2022/10/16 04:17:16;;;;;;;8.10;4.07;;;13.00;99.90;;;;;;5053236;28;20448;-64
2022/10/16 04:19:42;;;;;;;10.18;4.00;;;13.00;99.90;;;;;;5052551;28;20095;-64
2022/10/16 04:22:09;;;;;;;10.27;4.55;;;13.60;99.90;;;;;;5052916;28;20087;-63
2022/10/16 04:24:41;;;;;;;8.25;4.18;;;13.40;99.90;;;;;;5052687;28;20453;-64
2022/10/16 04:27:09;;;;;;;11.85;4.22;;;13.00;99.90;;;;;;5052772;28;20041;-64
2022/10/16 04:29:44;;;;;;;8.02;4.00;;;13.40;99.90;;;;;;5052626;28;20473;-63
2022/10/16 04:32:10;;;;;;;6.63;3.95;;;12.80;99.90;;;;;;5052469;28;20063;-64
2022/10/16 04:34:37;;;;;;;8.52;4.30;;;12.90;99.90;;;;;;5052820;28;20147;-64
2022/10/16 04:37:03;;;;;;;9.15;4.30;;;;;;;;;;5052206;28;20044;-64
2022/10/16 04:39:29;;;;;;;7.63;4.05;;;13.10;99.90;;;;;;5052407;28;20396;-64
2022/10/16 04:41:57;;;;;;;9.23;4.68;;;13.00;99.90;;;;;;5052376;28;20045;-64
2022/10/16 04:44:23;;;;;;;7.63;4.22;;;;;;;;;;5054500;28;20041;-64
2022/10/16 04:46:52;;;;;;;9.57;4.30;;;13.20;99.90;;;;;;5055827;28;20098;-64
2022/10/16 04:49:20;;;;;;;7.65;4.50;;;12.90;99.90;;;;;;5055682;28;20519;-64
2022/10/16 04:51:45;;;;;;;8.68;4.40;;;12.90;99.90;;;;;;5056227;28;20040;-64
2022/10/16 04:54:11;;;;;;;5.97;4.20;;;12.80;99.90;;;;;;5055975;28;20045;-64
2022/10/16 04:56:43;;;;;;;7.78;4.20;;;13.20;99.90;;;;;;5056143;28;20037;-64
2022/10/16 04:59:10;;;;;;;8.45;4.40;;;12.70;99.90;;;;;;5055820;28;20053;-64
2022/10/16 05:01:41;;;;;;;8.07;4.57;;;13.00;99.90;;;;;;5055900;28;20362;-64
2022/10/16 05:04:11;;;;;;;8.13;4.50;;;13.30;99.90;;;;;;5056015;28;20442;-64
2022/10/16 05:06:38;;;;;;;8.43;4.22;;;13.10;99.90;;;;;;5055966;28;20033;-64
2022/10/16 05:09:08;;;;;;;7.28;4.53;;;12.70;99.90;;;;;;5055832;28;20119;-64
2022/10/16 05:11:34;;;;;;;9.40;4.55;;;13.40;99.90;;;;;;5055797;28;20060;-64
2022/10/16 05:14:01;;;;;;;8.32;4.40;;;12.70;99.90;;;;;;5054326;28;20572;-64
2022/10/16 05:16:27;;;;;;;8.45;4.30;;;12.70;99.90;;;;;;5054646;28;20045;-64
2022/10/16 05:18:53;;;;;;;8.45;4.60;;;13.20;99.90;;;;;;5055448;28;20045;-64
2022/10/16 05:21:23;;;;;;;7.32;4.40;;;12.70;99.90;;;;;;5055788;28;20041;-64
2022/10/16 05:23:49;;;;;;;8.23;4.50;;;;;;;;;;5055386;28;20044;-63
2022/10/16 05:26:15;;;;;;;5.40;4.20;;;12.80;99.90;;;;;;5055256;28;20051;-63
2022/10/16 05:28:41;;;;;;;8.13;4.20;;;13.10;99.90;;;;;;5055631;28;20119;-63
2022/10/16 05:31:09;;;;;;;10.82;4.82;;;12.70;99.90;;;;;;5055241;28;20465;-63
2022/10/16 05:33:39;;;;;;;6.43;3.97;;;13.10;99.90;;;;;;5055207;28;20556;-64
2022/10/16 05:36:08;;;;;;;7.60;4.50;;;12.60;99.90;;;;;;5055431;28;20041;-64
2022/10/16 05:38:37;;;;;;;7.82;4.10;;;13.00;99.90;;;;;;5053960;28;20040;-64
2022/10/16 05:41:05;;;;;;;6.97;4.05;;;12.60;99.90;;;;;;5055079;28;20112;-64
2022/10/16 05:43:32;;;;;;;9.23;4.15;;;12.70;99.90;;;;;;5054085;28;20116;-64
2022/10/16 05:46:06;;;;;;;6.13;3.97;;;12.00;99.90;;;;;;5053457;28;20495;-64
2022/10/16 05:48:32;;;;;;;7.35;4.32;;;12.50;99.90;;;;;;5057244;28;20092;-64
2022/10/16 05:51:09;;;;;;;8.98;3.97;;;12.50;99.90;;;;;;5054992;28;20052;-64
2022/10/16 05:53:36;;;;;;;6.32;3.70;;;12.70;99.90;;;;;;5054772;28;20064;-64
2022/10/16 05:56:03;;;;;;;10.15;4.55;;;12.90;99.90;;;;;;5054117;28;20106;-60
2022/10/16 05:58:31;;;;;;;7.32;3.83;;;12.80;99.90;;;;;;5054702;28;20040;-60
2022/10/16 06:01:20;;;;;;;7.10;4.05;;;12.70;99.90;;;;;;5054782;28;20052;-60
2022/10/16 06:03:46;;;;;;;8.52;3.85;;;12.60;99.90;;;;;;5051662;28;20052;-60
2022/10/16 06:06:16;;;;;;;6.38;3.72;;;12.80;99.90;;;;;;5054118;28;20041;-60
2022/10/16 06:08:46;;;;;;;8.02;4.07;;;12.70;99.90;;;;;;5053629;28;20037;-60
2022/10/16 06:11:18;;;;;;;11.82;3.80;;;12.80;99.90;;;;;;5052732;28;20044;-60
2022/10/16 06:13:54;;;;;;;6.63;3.90;;;12.70;99.90;;;;;;5052593;28;20048;-60
2022/10/16 06:16:21;;;;;;;10.10;4.00;;;12.70;99.90;;;;;;5052396;28;20083;-60
2022/10/16 06:18:47;;;;;;;8.98;3.80;;;;;;;;;;5052431;28;20036;-60
2022/10/16 06:21:19;;;;;;;8.80;3.75;;;13.10;99.90;;;;;;5052544;28;20037;-60
2022/10/16 06:23:46;;;;;;;8.38;3.70;;;12.50;99.90;;;;;;5052984;28;20045;-60
2022/10/16 06:26:18;;;;;;;6.03;3.25;;;12.70;99.90;;;;;;5054218;28;20053;-60
2022/10/16 06:28:48;;;;;;;6.60;3.55;;;12.60;99.90;;;;;;5054003;28;20472;-60
2022/10/16 06:31:17;;;;;;;7.88;3.53;;;13.10;99.90;;;;;;5054188;28;20052;-60
2022/10/16 06:33:46;;;;;;;7.50;3.30;;;12.70;99.90;;;;;;5054260;28;20037;-60
2022/10/16 06:36:15;;;;;;;6.07;3.80;;;13.20;99.90;;;;;;5054016;28;20090;-60
2022/10/16 06:38:44;;;;;;;7.65;3.50;;;13.20;99.90;;;;;;5052891;28;20072;-60
2022/10/16 06:41:15;;;;;;;5.03;3.20;;;12.50;99.90;;;;;;5053917;28;20037;-60
2022/10/16 06:43:52;;;;;;;8.55;3.40;;;12.70;99.90;;;;;;5053861;28;20044;-60
2022/10/16 06:46:22;;;;;;;9.00;3.42;;;12.80;99.90;;;;;;5054047;28;20106;-60
2022/10/16 06:48:50;;;;;;;6.53;3.78;;;;;;;;;;5053812;28;20037;-60
2022/10/16 06:51:25;;;;;;;8.10;3.45;;;12.60;99.90;;;;;;5053470;28;20115;-60
2022/10/16 06:53:56;;;;;;;7.90;3.60;;;12.90;99.90;;;;;;5052337;28;20115;-60
2022/10/16 06:56:26;;;;;;;10.15;3.65;;;12.90;99.90;;;;;;5053678;28;20041;-60
2022/10/16 06:58:53;;;;;;;6.88;3.47;;;12.60;99.90;;;;;;5053250;28;20385;-60
2022/10/16 07:01:22;;;;;;;6.05;3.17;;;12.90;99.90;;;;;;5054050;28;20385;-60
2022/10/16 07:03:50;;;;;;;8.05;3.70;;;13.00;99.90;;;;;;5053343;28;20124;-59
2022/10/16 07:06:23;;;;;;;8.63;3.47;;;13.50;99.90;;;;;;5053311;28;20496;-60
2022/10/16 07:08:50;;;;;;;8.45;3.30;;;13.20;99.90;;;;;;5053482;28;20094;-60
2022/10/16 07:11:18;;;;;;;10.65;3.42;;;13.60;99.90;;;;;;5053390;28;20072;-60
2022/10/16 07:13:49;;;;;;;8.27;3.10;;;13.30;99.90;;;;;;5052247;28;20463;-60
2022/10/16 07:16:17;;;;;;;10.25;3.30;;;13.20;99.90;;;;;;5053348;28;20094;-60
2022/10/16 07:18:49;;;;;;;8.65;3.63;;;13.40;99.90;;;;;;5053187;28;20505;-60
2022/10/16 07:21:20;;;;;;;6.68;3.25;;;13.70;99.90;;;;;;5053482;28;20037;-60
2022/10/16 07:23:57;;;;;;;5.53;3.15;;;13.80;99.90;;;;;;5048684;28;20057;-60
2022/10/16 07:26:46;;;;;;;9.82;3.58;;;13.50;99.90;;;;;;5051780;28;20052;-60
2022/10/16 07:29:19;;;;;;;5.57;3.08;;;13.40;99.90;;;;;;5050688;28;20045;-57
2022/10/16 07:31:46;;;;;;;7.70;3.55;;;;;;;;;;5050767;28;20524;-57
2022/10/16 07:34:13;;;;;;;9.27;3.20;;;13.80;99.90;;;;;;5051844;28;20103;-57
2022/10/16 07:36:40;;;;;;;8.55;3.47;;;13.70;99.90;;;;;;5034707;28;20048;-57
2022/10/16 07:39:08;;;;;;;7.30;3.20;;;13.40;99.90;;;;;;5051594;28;20049;-57
2022/10/16 07:41:36;;;;;;;10.82;3.58;;;13.60;99.90;;;;;;5050358;28;20520;-57
2022/10/16 07:44:03;;;;;;;7.63;3.35;;;13.80;99.90;;;;;;5051717;28;20087;-57
2022/10/16 07:46:29;;;;;;;11.80;3.40;;;13.90;99.90;;;;;;5051059;28;20048;-57
2022/10/16 07:48:56;;;;;;;7.15;3.10;;;14.50;99.90;;;;;;5051823;28;20060;-58
2022/10/16 07:51:26;;;;;;;7.65;3.95;;;13.90;99.90;;;;;;5051204;28;20041;-58
2022/10/16 07:53:52;;;;;;;8.85;3.25;;;14.40;99.90;;;;;;5050669;28;20057;-58
2022/10/16 07:56:30;;;;;;;9.80;3.40;;;14.70;99.90;;;;;;5052996;28;20037;-58
2022/10/16 07:58:59;;;;;;;9.85;3.22;;;;;;;;;;5053144;28;20052;-58
2022/10/16 08:01:44;;;;;;;6.50;3.00;;;14.40;99.90;;;;;;5053013;28;20040;-58
2022/10/16 08:04:12;;;;;;;6.65;3.20;;;13.70;99.90;;;;;;5052903;28;20435;-58
2022/10/16 08:06:41;;;;;;;6.40;3.00;;;14.20;99.90;;;;;;5052134;28;20384;-58
2022/10/16 08:09:13;;;;;;;6.75;2.90;;;14.20;99.90;;;;;;5052858;28;20041;-58
2022/10/16 08:11:38;;;;;;;8.43;3.10;;;13.90;99.90;;;;;;5052579;28;20052;-58
2022/10/16 08:14:05;;;;;;;7.72;2.80;;;;;;;;;;5052871;28;20041;-58
2022/10/16 08:16:31;;;;;;;6.47;2.60;;;14.20;99.90;;;;;;5052672;28;20049;-58
2022/10/16 08:18:57;;;;;;;5.53;2.70;;;14.20;99.90;;;;;;5054264;28;20120;-58
2022/10/16 08:21:23;;;;;;;4.55;2.53;;;14.40;99.90;;;;;;5056538;28;20041;-58
2022/10/16 08:23:50;;;;;;;7.35;2.67;;;14.10;99.90;;;;;;5056576;28;20187;-58
2022/10/16 08:26:16;;;;;;;9.23;2.65;;;14.80;99.90;;;;;;5056190;28;20496;-58
2022/10/16 08:28:42;;;;;;;6.00;2.55;;;14.50;99.90;;;;;;5055109;28;20523;-59
2022/10/16 08:31:12;;;;;;;6.07;2.50;;;14.70;99.90;;;;;;5056856;28;20072;-59
2022/10/16 08:33:40;;;;;;;6.72;2.42;;;15.00;99.90;;;;;;5056678;28;20404;-59
2022/10/16 08:36:06;;;;;;;7.28;2.50;;;15.00;99.90;;;;;;5054903;28;20053;-59
2022/10/16 08:38:34;;;;;;;4.00;2.30;;;15.00;99.90;;;;;;5056440;28;20044;-59
2022/10/16 08:41:45;;;;;;;4.45;2.47;;;15.20;99.90;;;;;;5054865;28;20044;-59
2022/10/16 08:44:23;;;;;;;5.53;2.50;;;15.30;99.90;;;;;;5055180;28;20515;-59
2022/10/16 08:46:48;;;;;;;6.88;2.72;;;15.40;99.90;;;;;;5056484;28;20080;-59
2022/10/16 08:49:15;;;;;;;4.82;2.85;;;15.50;99.90;;;;;;5055723;28;20072;-59
2022/10/16 08:51:41;;;;;;;7.90;2.72;;;;;;;;;;5055935;28;20054;-58
2022/10/16 08:54:36;;;;;;;10.68;2.63;;;15.70;99.90;;;;;;5056068;28;20052;-58
2022/10/16 08:57:16;;;;;;;6.00;2.20;;;16.40;99.90;;;;;;5056277;28;20057;-58
2022/10/16 08:59:43;;;;;;;5.95;2.47;;;16.00;99.90;;;;;;5056036;28;20397;-58
2022/10/16 09:02:33;;;;;;;5.47;2.53;;;16.10;99.90;;;;;;5049379;28;20041;-58
2022/10/16 09:05:21;;;;;;;6.15;2.88;;;16.50;99.90;;;;;;5054264;28;20036;-58
2022/10/16 09:08:28;;;;;;;5.60;2.47;;;16.50;99.90;;;;;;5056791;28;20142;-58
2022/10/16 09:11:10;;;;;;;6.38;2.40;;;16.60;99.90;;;;;;5056129;28;20095;-58
2022/10/16 09:13:51;;;;;;;4.78;2.40;;;16.90;99.90;;;;;;5055771;28;20060;-58
2022/10/16 09:16:32;;;;;;;7.45;2.40;;;17.10;99.90;;;;;;5055777;28;20045;-58
2022/10/16 09:19:14;;;;;;;8.55;2.20;;;17.10;99.90;;;;;;5055583;28;20047;-58
2022/10/16 09:21:56;;;;;;;5.05;2.58;;;17.00;99.90;;;;;;5055186;28;20388;-58
2022/10/16 09:24:26;;;;;;;5.82;2.33;;;16.90;99.90;;;;;;5055465;28;20128;-58
2022/10/16 09:26:52;;;;;;;9.93;2.42;;;17.50;99.90;;;;;;5055114;28;20056;-58
2022/10/16 09:29:21;;;;;;;6.65;2.30;;;17.00;99.90;;;;;;5037801;28;20400;-58
2022/10/16 09:31:51;;;;;;;8.80;2.30;;;17.60;99.90;;;;;;5034567;28;20501;-58
2022/10/16 09:34:30;;;;;;;9.57;2.42;;;16.80;99.90;;;;;;5035276;28;20076;-58
2022/10/16 09:36:58;;;;;;;9.30;2.13;;;16.90;99.90;;;;;;5035450;28;20051;-58
2022/10/16 09:39:25;;;;;;;9.23;2.50;;;17.10;99.90;;;;;;5035342;28;20049;-58
2022/10/16 09:41:51;;;;;;;6.97;2.05;;;17.10;99.90;;;;;;5035465;28;20045;-58
2022/10/16 09:44:30;;;;;;;8.68;2.40;;;17.20;99.90;;;;;;5034935;28;20041;-58
2022/10/16 09:47:13;;;;;;;7.05;2.22;;;17.00;99.90;;;;;;5035619;28;20057;-58
2022/10/16 09:49:38;;;;;;;13.75;2.40;;;17.20;99.90;;;;;;5035213;28;20037;-58
2022/10/16 09:52:10;;;;;;;8.65;2.13;;;18.00;99.90;;;;;;5035079;28;20048;-58
2022/10/16 09:54:37;;;;;;;9.02;2.15;;;17.60;99.90;;;;;;5034983;28;20041;-58
2022/10/16 09:57:11;;;;;;;8.30;2.20;;;17.00;99.90;;;;;;5034784;28;20173;-58
2022/10/16 09:59:50;;;;;;;11.63;2.38;;;16.90;99.90;;;;;;5035014;28;20120;-58
2022/10/16 10:02:43;;;;;;;8.93;2.20;;;16.90;99.90;;;;;;5018309;28;20584;-58
2022/10/16 10:05:25;;;;;;;11.93;3.05;;;17.20;99.90;;;;;;5035111;28;20033;-58
2022/10/16 10:07:59;;;;;;;10.85;2.20;;;16.90;99.90;;;;;;5034652;28;20072;-58
2022/10/16 10:10:30;;;;;;;9.32;2.33;;;17.50;99.90;;;;;;5036145;28;20128;-58
2022/10/16 10:12:58;;;;;;;10.82;2.58;;;17.20;99.90;;;;;;5042749;28;20064;-58
2022/10/16 10:15:27;;;;;;;16.15;2.65;;;16.90;99.90;;;;;;5066739;28;20080;-58
2022/10/16 10:17:57;;;;;;;11.48;2.42;;;17.10;99.90;;;;;;5034394;28;20132;-58
2022/10/16 10:20:29;;;;;;;10.63;2.35;;;17.20;99.90;;;;;;5034668;28;20042;-58
2022/10/16 10:22:56;;;;;;;14.10;2.72;;;17.70;99.90;;;;;;5034783;28;20444;-58
2022/10/16 10:25:42;;;;;;;10.85;2.40;;;17.50;99.90;;;;;;5032850;28;20050;-58
2022/10/16 10:28:08;;;;;;;12.82;2.60;;;;;;;;;;5033016;28;20041;-58
2022/10/16 10:30:39;;;;;;;12.68;2.60;;;17.70;99.90;;;;;;5034127;28;20068;-58
2022/10/16 10:34:03;;;;;;;8.10;2.08;;;16.70;99.90;;;;;;5044357;28;20080;-58
2022/10/16 10:36:37;;;;;;;13.23;2.63;;;17.60;99.90;;;;;;5012353;28;20045;-59
2022/10/16 10:39:11;;;;;;;11.55;2.50;;;17.20;99.90;;;;;;5012239;28;20056;-58
2022/10/16 10:42:01;;;;;;;8.25;2.28;;;17.70;99.90;;;;;;5011726;28;20042;-58
2022/10/16 10:44:42;;;;;;;12.63;2.78;;;17.40;99.90;;;;;;5008828;28;20046;-58
2022/10/16 10:47:32;;;;;;;11.95;2.40;;;17.80;99.90;;;;;;5010531;28;20084;-58
2022/10/16 10:50:37;;;;;;;12.50;2.60;;;17.70;99.90;;;;;;5010847;28;20089;-59
2022/10/16 10:54:07;;;;;;;12.50;2.83;;;17.50;99.90;;;;;;5010426;28;20061;-59
2022/10/16 10:56:57;;;;;;;10.88;2.50;;;17.80;99.90;;;;;;4934935;29;20077;-59
2022/10/16 11:00:01;;;;;;;9.75;2.38;;;18.00;99.90;;;;;;4951782;29;20052;-59
2022/10/16 11:02:39;;;;;;;17.60;2.90;;;17.70;99.90;;;;;;4952642;29;20043;-59
2022/10/16 11:05:16;;;;;;;16.13;2.80;;;17.90;99.90;;;;;;4952241;28;20035;-59
2022/10/16 11:07:54;;;;;;;11.48;2.80;;;18.00;99.90;;;;;;4952292;28;20047;-59
2022/10/16 11:10:27;;;;;;;11.95;2.60;;;18.00;99.90;;;;;;4970859;28;20060;-59
2022/10/16 11:13:04;;;;;;;10.23;2.70;;;18.10;99.90;;;;;;5001087;28;20145;-60
2022/10/16 11:15:35;;;;;;;11.43;2.88;;;18.80;99.90;;;;;;4991134;28;20042;-60
2022/10/16 11:18:06;;;;;;;12.40;2.55;;;18.00;99.90;;;;;;4990650;28;20081;-60
2022/10/16 11:20:33;;;;;;;11.82;2.55;;;18.20;99.90;;;;;;4990614;28;20050;-60
2022/10/16 11:23:18;;;;;;;9.82;2.42;;;18.70;99.90;;;;;;4990781;28;20034;-59
2022/10/16 11:25:47;;;;;;;8.18;2.22;;;18.20;99.90;;;;;;4992051;28;20057;-59
2022/10/16 11:28:24;;;;;;;13.90;2.72;;;18.50;99.90;;;;;;5035309;28;20055;-59
2022/10/16 11:31:09;;;;;;;10.82;2.53;;;18.50;99.90;;;;;;5052144;28;20047;-60
2022/10/16 11:33:40;;;;;;;11.15;2.55;;;18.50;99.90;;;;;;5052208;28;20041;-60
2022/10/16 11:36:18;;;;;;;10.60;2.58;;;18.50;99.90;;;;;;5050802;28;20444;-60
2022/10/16 11:38:57;;;;;;;10.45;2.42;;;18.40;99.90;;;;;;5052880;28;20045;-60
2022/10/16 11:41:41;;;;;;;11.75;2.42;;;18.10;99.90;;;;;;5052781;28;20098;-59
2022/10/16 11:44:32;;;;;;;9.38;2.40;;;18.20;99.90;;;;;;5053176;28;20102;-60
2022/10/16 11:47:16;;;;;;;9.25;2.40;;;17.50;99.90;;;;;;5053172;28;20045;-59
2022/10/16 11:49:45;;;;;;;11.60;2.80;;;17.60;99.90;;;;;;5051996;28;20045;-60
2022/10/16 11:52:47;;;;;;;9.10;2.45;;;17.70;99.90;;;;;;5053216;28;20045;-60
2022/10/16 11:55:27;;;;;;;9.57;2.50;;;17.80;99.90;;;;;;5057945;28;20384;-60
2022/10/16 11:58:18;;;;;;;19.75;2.80;;;18.50;99.90;;;;;;5057029;28;20382;-60
2022/10/16 12:01:00;;;;;;;13.30;2.65;;;17.70;99.90;;;;;;5057107;28;20123;-60
2022/10/16 12:03:29;;;;;;;11.07;2.50;;;17.40;99.90;;;;;;5056799;28;20513;-60
2022/10/16 12:06:25;;;;;;;10.05;2.45;;;18.40;99.90;;;;;;5057229;28;20036;-60
2022/10/16 12:08:53;;;;;;;12.60;2.47;;;18.60;99.90;;;;;;5056771;28;20048;-60
2022/10/16 12:11:24;;;;;;;11.70;2.50;;;18.30;99.90;;;;;;5056890;28;20045;-60
2022/10/16 12:13:50;;;;;;;10.52;2.55;;;18.30;99.90;;;;;;5057066;28;20118;-60
2022/10/16 12:16:24;;;;;;;13.23;2.50;;;18.30;99.90;;;;;;5056650;28;20405;-60
2022/10/16 12:19:13;;;;;;;11.23;2.40;;;18.70;99.90;;;;;;5056572;28;20036;-60
2022/10/16 12:21:42;;;;;;;15.88;2.47;;;18.50;99.90;;;;;;5056860;28;20092;-60
2022/10/16 12:24:33;;;;;;;9.05;2.40;;;19.30;99.90;;;;;;5056721;28;20036;-60
2022/10/16 12:27:06;;;;;;;9.73;2.50;;;18.80;99.90;;;;;;5055787;28;20132;-60
2022/10/16 12:29:36;;;;;;;10.82;2.75;;;19.00;99.90;;;;;;5056682;28;20048;-60
2022/10/16 12:32:06;;;;;;;10.00;2.55;;;19.00;99.90;;;;;;5056329;28;20036;-60
2022/10/16 12:34:38;;;;;;;7.75;2.20;;;18.90;99.90;;;;;;5056442;28;20464;-60
2022/10/16 12:37:21;;;;;;;10.93;2.35;;;19.00;99.90;;;;;;5056438;28;20048;-60
2022/10/16 12:39:49;;;;;;;13.07;2.63;;;19.60;99.90;;;;;;5054785;28;20041;-60
2022/10/16 12:42:31;;;;;;;13.35;2.47;;;19.20;99.90;;;;;;5056520;28;20443;-60
2022/10/16 12:45:31;;;;;;;12.57;2.60;;;19.20;99.90;;;;;;5056372;28;20033;-60
2022/10/16 12:48:02;;;;;;;10.90;2.40;;;19.10;99.90;;;;;;5056135;28;20037;-58
2022/10/16 12:50:38;;;;;;;13.02;2.33;;;19.30;99.90;;;;;;5055629;28;20048;-58
2022/10/16 12:53:22;;;;;;;11.77;2.50;;;19.40;99.90;;;;;;5056082;28;20495;-58
2022/10/16 12:56:15;;;;;;;10.75;2.55;;;19.30;99.90;;;;;;5056056;28;20469;-58
2022/10/16 12:59:07;;;;;;;9.32;2.10;;;19.90;99.90;;;;;;5054810;28;20392;-58
2022/10/16 13:01:51;;;;;;;7.35;2.17;;;19.50;99.90;;;;;;5054913;28;20458;-58
2022/10/16 13:04:41;;;;;;;12.50;2.40;;;19.60;99.90;;;;;;5055659;28;20037;-58
2022/10/16 13:07:20;;;;;;;9.52;2.20;;;19.60;99.90;;;;;;5055997;28;20043;-58
2022/10/16 13:10:00;;;;;;;8.55;2.35;;;19.60;99.90;;;;;;5055960;28;20041;-58
2022/10/16 13:13:04;;;;;;;9.68;2.30;;;19.50;99.90;;;;;;5056351;28;20370;-58
2022/10/16 13:15:56;;;;;;;9.40;2.28;;;19.60;99.90;;;;;;5055233;28;20412;-58
2022/10/16 13:18:48;;;;;;;9.75;2.35;;;19.60;99.90;;;;;;5055758;28;20048;-58